createdAt,value
2022-08-01T00:00:55.547Z,0
2022-08-01T00:01:55.590Z,0
2022-08-01T00:02:55.606Z,0
2022-08-01T00:03:55.551Z,0
2022-08-01T00:04:55.554Z,1.3
2022-08-01T00:05:55.552Z,0
2022-08-01T00:06:55.553Z,0
2022-08-01T00:07:55.536Z,0
2022-08-01T00:08:55.550Z,0
2022-08-01T00:09:55.544Z,0
2022-08-01T00:10:55.536Z,0
2022-08-01T00:11:59.450Z,0
2022-08-01T00:12:55.547Z,0
2022-08-01T00:13:55.548Z,0
2022-08-01T00:14:55.546Z,0
2022-08-01T00:15:55.543Z,0
2022-08-01T00:16:55.550Z,0
2022-08-01T00:17:55.551Z,0
2022-08-01T00:18:55.544Z,0
2022-08-01T00:19:55.547Z,0
2022-08-01T00:20:55.546Z,0
2022-08-01T00:21:55.543Z,0
2022-08-01T00:22:55.547Z,2.2
2022-08-01T00:23:55.552Z,2.7
2022-08-01T00:24:55.547Z,0
2022-08-01T00:25:55.552Z,0
2022-08-01T00:26:55.552Z,0
2022-08-01T00:27:55.560Z,0
2022-08-01T00:28:55.549Z,0
2022-08-01T00:30:10.594Z,0
2022-08-01T00:30:55.555Z,0
2022-08-01T00:31:55.550Z,0
2022-08-01T00:32:55.554Z,0
2022-08-01T00:33:55.555Z,0
2022-08-01T00:34:55.557Z,0
2022-08-01T00:35:55.561Z,0
2022-08-01T00:36:55.558Z,0
2022-08-01T00:37:55.563Z,0
2022-08-01T00:38:55.552Z,0
2022-08-01T00:39:55.560Z,0
2022-08-01T00:40:55.557Z,0
2022-08-01T00:41:59.577Z,0
2022-08-01T00:42:55.556Z,0
2022-08-01T00:43:55.562Z,0
2022-08-01T00:44:55.556Z,0
2022-08-01T00:45:55.560Z,0
2022-08-01T00:46:55.563Z,0
2022-08-01T00:47:55.618Z,0
2022-08-01T00:48:55.563Z,0
2022-08-01T00:49:55.563Z,0
2022-08-01T00:50:55.563Z,0
2022-08-01T00:51:55.566Z,0
2022-08-01T00:52:55.558Z,0
2022-08-01T00:53:55.563Z,0
2022-08-01T00:54:55.558Z,0
2022-08-01T00:55:55.566Z,0
2022-08-01T00:56:55.567Z,0
2022-08-01T00:58:03.919Z,0
2022-08-01T00:58:55.564Z,0
2022-08-01T00:59:55.561Z,0
2022-08-01T01:00:55.585Z,0
2022-08-01T01:01:55.973Z,0
2022-08-01T01:02:55.569Z,0
2022-08-01T01:03:58.899Z,0
2022-08-01T01:04:55.569Z,0
2022-08-01T01:05:55.574Z,0
2022-08-01T01:06:55.569Z,0
2022-08-01T01:07:55.570Z,0
2022-08-01T01:08:55.565Z,0
2022-08-01T01:09:55.572Z,0
2022-08-01T01:10:55.565Z,0
2022-08-01T01:11:55.565Z,0
2022-08-01T01:12:55.562Z,0
2022-08-01T01:13:55.567Z,0
2022-08-01T01:14:55.561Z,0
2022-08-01T01:15:55.571Z,0
2022-08-01T01:16:55.573Z,0
2022-08-01T01:17:55.579Z,0
2022-08-01T01:18:55.572Z,0
2022-08-01T01:19:55.572Z,0
2022-08-01T01:20:55.575Z,0
2022-08-01T01:21:55.578Z,0
2022-08-01T01:22:55.572Z,0
2022-08-01T01:23:55.570Z,0
2022-08-01T01:24:55.582Z,0
2022-08-01T01:25:55.586Z,0
2022-08-01T01:26:55.586Z,0
2022-08-01T01:27:55.586Z,0
2022-08-01T01:28:55.581Z,0
2022-08-01T01:29:59.172Z,0
2022-08-01T01:30:55.580Z,0
2022-08-01T01:31:55.594Z,0
2022-08-01T01:32:55.584Z,0
2022-08-01T01:33:55.589Z,0
2022-08-01T01:34:55.592Z,0
2022-08-01T01:35:55.586Z,0
2022-08-01T01:36:55.586Z,0
2022-08-01T01:37:55.592Z,0
2022-08-01T01:38:55.592Z,0
2022-08-01T01:39:55.603Z,0
2022-08-01T01:40:55.593Z,0
2022-08-01T01:41:55.594Z,0
2022-08-01T01:42:55.592Z,0
2022-08-01T01:43:55.592Z,0
2022-08-01T01:44:55.593Z,0
2022-08-01T01:45:55.602Z,0
2022-08-01T01:46:55.592Z,0
2022-08-01T01:47:55.587Z,0
2022-08-01T01:48:55.643Z,0
2022-08-01T01:49:55.593Z,0
2022-08-01T01:50:55.602Z,0
2022-08-01T01:52:02.357Z,0
2022-08-01T01:52:55.591Z,0
2022-08-01T01:53:55.606Z,0
2022-08-01T01:54:55.609Z,0
2022-08-01T01:55:55.619Z,0
2022-08-01T01:56:55.598Z,0
2022-08-01T01:57:55.605Z,0
2022-08-01T01:58:55.599Z,0
2022-08-01T01:59:55.608Z,0
2022-08-01T02:00:55.604Z,0
2022-08-01T02:01:58.935Z,0
2022-08-01T02:02:55.706Z,0
2022-08-01T02:03:55.600Z,0
2022-08-01T02:04:55.610Z,0
2022-08-01T02:05:55.612Z,0
2022-08-01T02:06:55.613Z,0
2022-08-01T02:07:59.450Z,0
2022-08-01T02:08:55.613Z,0
2022-08-01T02:09:55.613Z,0
2022-08-01T02:10:55.615Z,0
2022-08-01T02:11:59.368Z,0
2022-08-01T02:12:55.611Z,0
2022-08-01T02:13:55.608Z,0
2022-08-01T02:14:55.621Z,0
2022-08-01T02:15:58.968Z,0
2022-08-01T02:16:55.622Z,0
2022-08-01T02:17:55.621Z,0
2022-08-01T02:18:55.616Z,0
2022-08-01T02:19:55.625Z,0
2022-08-01T02:20:55.616Z,0
2022-08-01T02:21:55.624Z,0
2022-08-01T02:22:55.615Z,0
2022-08-01T02:23:55.619Z,0
2022-08-01T02:24:55.618Z,0
2022-08-01T02:26:08.703Z,0
2022-08-01T02:26:55.631Z,0
2022-08-01T02:27:55.619Z,0
2022-08-01T02:28:55.618Z,0
2022-08-01T02:29:55.624Z,0
2022-08-01T02:30:55.629Z,0
2022-08-01T02:31:55.622Z,0
2022-08-01T02:32:55.629Z,0
2022-08-01T02:33:55.631Z,0
2022-08-01T02:34:55.631Z,0
2022-08-01T02:36:28.748Z,0
2022-08-01T02:36:55.629Z,0
2022-08-01T02:37:55.634Z,0
2022-08-01T02:38:55.635Z,0
2022-08-01T02:39:55.646Z,0
2022-08-01T02:40:55.630Z,0
2022-08-01T02:41:55.632Z,0
2022-08-01T02:42:55.640Z,0
2022-08-01T02:43:55.635Z,0
2022-08-01T02:44:55.639Z,0
2022-08-01T02:45:55.641Z,0
2022-08-01T02:46:55.643Z,0
2022-08-01T02:47:55.647Z,0
2022-08-01T02:48:55.698Z,0
2022-08-01T02:49:55.646Z,0
2022-08-01T02:50:55.638Z,0
2022-08-01T02:51:55.653Z,0
2022-08-01T02:52:55.643Z,0
2022-08-01T02:53:55.648Z,0
2022-08-01T02:54:55.661Z,0
2022-08-01T02:55:55.645Z,0
2022-08-01T02:56:55.649Z,0
2022-08-01T02:57:56.664Z,0
2022-08-01T02:58:55.650Z,0
2022-08-01T02:59:55.961Z,0
2022-08-01T03:00:55.651Z,0
2022-08-01T03:01:55.727Z,0
2022-08-01T03:02:55.652Z,4.5
2022-08-01T03:03:55.654Z,4.4
2022-08-01T03:04:57.146Z,1
2022-08-01T03:05:55.653Z,0
2022-08-01T03:06:55.657Z,0
2022-08-01T03:07:55.655Z,2.3000000000000003
2022-08-01T03:08:55.651Z,0
2022-08-01T03:09:55.655Z,0
2022-08-01T03:10:55.650Z,0
2022-08-01T03:11:55.658Z,0
2022-08-01T03:12:55.653Z,0
2022-08-01T03:13:55.662Z,0
2022-08-01T03:14:55.654Z,0
2022-08-01T03:15:55.662Z,0
2022-08-01T03:16:55.659Z,0
2022-08-01T03:17:55.667Z,0
2022-08-01T03:18:55.664Z,0
2022-08-01T03:19:55.667Z,0
2022-08-01T03:20:55.662Z,0
2022-08-01T03:21:55.665Z,0
2022-08-01T03:22:55.667Z,0
2022-08-01T03:23:55.663Z,0
2022-08-01T03:24:55.662Z,0
2022-08-01T03:25:55.664Z,0
2022-08-01T03:26:55.669Z,0
2022-08-01T03:27:55.670Z,0
2022-08-01T03:28:55.677Z,0
2022-08-01T03:29:55.680Z,0
2022-08-01T03:30:55.681Z,0
2022-08-01T03:31:55.673Z,0
2022-08-01T03:32:55.674Z,0
2022-08-01T03:33:55.678Z,0
2022-08-01T03:34:55.674Z,0
2022-08-01T03:35:55.667Z,0
2022-08-01T03:36:55.678Z,0
2022-08-01T03:38:15.110Z,0
2022-08-01T03:38:55.672Z,0
2022-08-01T03:39:55.675Z,0
2022-08-01T03:40:55.675Z,0
2022-08-01T03:42:04.343Z,0
2022-08-01T03:42:55.683Z,0
2022-08-01T03:43:55.684Z,0
2022-08-01T03:44:55.675Z,0
2022-08-01T03:45:55.676Z,0
2022-08-01T03:46:55.680Z,0
2022-08-01T03:47:55.684Z,0
2022-08-01T03:48:55.721Z,0
2022-08-01T03:49:55.683Z,0
2022-08-01T03:50:55.682Z,0
2022-08-01T03:51:55.692Z,0
2022-08-01T03:52:55.688Z,0
2022-08-01T03:53:55.676Z,0
2022-08-01T03:54:55.678Z,0
2022-08-01T03:55:55.688Z,0
2022-08-01T03:56:55.691Z,0
2022-08-01T03:57:55.681Z,0
2022-08-01T03:58:55.684Z,0
2022-08-01T03:59:55.678Z,0
2022-08-01T04:00:55.753Z,0
2022-08-01T04:01:55.732Z,0
2022-08-01T04:02:55.689Z,0
2022-08-01T04:03:55.688Z,0
2022-08-01T04:04:55.685Z,0
2022-08-01T04:05:55.686Z,0
2022-08-01T04:06:55.688Z,0
2022-08-01T04:07:55.689Z,0
2022-08-01T04:08:55.704Z,0
2022-08-01T04:09:55.683Z,0
2022-08-01T04:10:55.687Z,0
2022-08-01T04:11:55.689Z,0
2022-08-01T04:12:55.692Z,0
2022-08-01T04:13:55.693Z,0
2022-08-01T04:14:55.707Z,0
2022-08-01T04:15:55.692Z,0
2022-08-01T04:16:55.700Z,0
2022-08-01T04:17:55.693Z,0
2022-08-01T04:18:55.690Z,0
2022-08-01T04:19:55.699Z,0
2022-08-01T04:20:55.689Z,0
2022-08-01T04:21:55.700Z,0
2022-08-01T04:22:55.690Z,0
2022-08-01T04:23:55.697Z,0
2022-08-01T04:24:57.019Z,0
2022-08-01T04:25:55.699Z,0
2022-08-01T04:26:55.696Z,0
2022-08-01T04:27:55.709Z,0
2022-08-01T04:28:55.699Z,0
2022-08-01T04:29:55.701Z,0
2022-08-01T04:30:59.855Z,0
2022-08-01T04:31:55.692Z,0
2022-08-01T04:32:55.711Z,0
2022-08-01T04:33:55.703Z,0
2022-08-01T04:34:55.702Z,0
2022-08-01T04:36:03.153Z,0
2022-08-01T04:36:55.712Z,0
2022-08-01T04:37:55.707Z,0
2022-08-01T04:38:55.703Z,0
2022-08-01T04:39:55.700Z,0
2022-08-01T04:40:55.706Z,0
2022-08-01T04:41:55.706Z,0
2022-08-01T04:42:55.709Z,0
2022-08-01T04:43:55.703Z,0
2022-08-01T04:44:55.707Z,0
2022-08-01T04:45:55.705Z,0
2022-08-01T04:46:55.715Z,0
2022-08-01T04:47:55.706Z,0
2022-08-01T04:48:55.770Z,0
2022-08-01T04:49:55.711Z,0
2022-08-01T04:50:55.717Z,0
2022-08-01T04:51:55.720Z,0
2022-08-01T04:52:55.734Z,0
2022-08-01T04:53:55.711Z,0
2022-08-01T04:54:55.715Z,0
2022-08-01T04:55:55.720Z,0
2022-08-01T04:56:55.705Z,0
2022-08-01T04:57:55.710Z,0
2022-08-01T04:58:55.709Z,0
2022-08-01T04:59:55.711Z,0
2022-08-01T05:00:55.784Z,0
2022-08-01T05:01:55.717Z,0
2022-08-01T05:02:55.721Z,0
2022-08-01T05:03:55.717Z,0
2022-08-01T05:04:55.718Z,0
2022-08-01T05:05:55.727Z,0
2022-08-01T05:06:55.723Z,0
2022-08-01T05:07:55.723Z,0
2022-08-01T05:08:55.723Z,0
2022-08-01T05:09:55.725Z,0
2022-08-01T05:10:55.728Z,0
2022-08-01T05:11:55.725Z,0
2022-08-01T05:12:55.729Z,0
2022-08-01T05:13:55.719Z,0
2022-08-01T05:14:55.728Z,0
2022-08-01T05:15:55.728Z,0
2022-08-01T05:16:55.723Z,0
2022-08-01T05:17:55.743Z,0
2022-08-01T05:18:55.730Z,0
2022-08-01T05:19:55.725Z,0
2022-08-01T05:20:55.747Z,0
2022-08-01T05:22:02.035Z,0
2022-08-01T05:22:55.732Z,0
2022-08-01T05:23:55.725Z,0.9
2022-08-01T05:24:55.729Z,0
2022-08-01T05:25:56.509Z,0
2022-08-01T05:26:55.732Z,0
2022-08-01T05:27:55.733Z,0
2022-08-01T05:28:55.730Z,0
2022-08-01T05:29:55.727Z,0
2022-08-01T05:30:55.808Z,0
2022-08-01T05:31:55.750Z,0
2022-08-01T05:32:55.735Z,0
2022-08-01T05:33:55.729Z,0
2022-08-01T05:34:55.734Z,0
2022-08-01T05:35:55.723Z,0
2022-08-01T05:36:57.523Z,0
2022-08-01T05:37:55.730Z,0
2022-08-01T05:38:55.732Z,0
2022-08-01T05:39:55.726Z,0
2022-08-01T05:40:55.738Z,0
2022-08-01T05:41:55.726Z,0
2022-08-01T05:42:55.739Z,0
2022-08-01T05:43:55.739Z,0
2022-08-01T05:44:55.738Z,0
2022-08-01T05:45:55.743Z,0
2022-08-01T05:46:55.740Z,0
2022-08-01T05:47:55.741Z,0
2022-08-01T05:48:55.877Z,0
2022-08-01T05:49:55.740Z,0
2022-08-01T05:50:58.525Z,0
2022-08-01T05:51:55.734Z,0
2022-08-01T05:52:55.742Z,0
2022-08-01T05:53:55.744Z,0
2022-08-01T05:54:55.745Z,0
2022-08-01T05:55:55.744Z,0
2022-08-01T05:56:55.742Z,0
2022-08-01T05:57:55.734Z,0
2022-08-01T05:58:55.745Z,0
2022-08-01T05:59:55.737Z,0
2022-08-01T06:00:55.772Z,0
2022-08-01T06:01:55.766Z,0
2022-08-01T06:02:55.742Z,0
2022-08-01T06:03:55.746Z,0
2022-08-01T06:04:55.742Z,0
2022-08-01T06:05:55.741Z,0
2022-08-01T06:06:55.743Z,0
2022-08-01T06:07:55.741Z,0
2022-08-01T06:08:55.743Z,0
2022-08-01T06:09:55.748Z,0
2022-08-01T06:10:55.741Z,0
2022-08-01T06:11:55.756Z,0
2022-08-01T06:12:55.743Z,0
2022-08-01T06:13:55.746Z,0
2022-08-01T06:14:55.746Z,0
2022-08-01T06:15:55.744Z,0
2022-08-01T06:16:55.749Z,0
2022-08-01T06:17:55.750Z,0
2022-08-01T06:18:56.896Z,0
2022-08-01T06:19:55.744Z,0
2022-08-01T06:20:55.750Z,0
2022-08-01T06:21:55.752Z,0
2022-08-01T06:22:55.747Z,0
2022-08-01T06:23:55.745Z,0
2022-08-01T06:24:55.749Z,0
2022-08-01T06:25:55.753Z,0
2022-08-01T06:26:55.743Z,0
2022-08-01T06:27:55.744Z,0
2022-08-01T06:28:55.745Z,0
2022-08-01T06:29:55.752Z,0
2022-08-01T06:30:55.754Z,0
2022-08-01T06:31:55.746Z,0
2022-08-01T06:32:55.754Z,0
2022-08-01T06:33:55.746Z,0
2022-08-01T06:34:56.192Z,0
2022-08-01T06:35:55.757Z,0
2022-08-01T06:36:55.751Z,0
2022-08-01T06:37:55.750Z,0
2022-08-01T06:38:55.751Z,0
2022-08-01T06:39:55.750Z,0
2022-08-01T06:40:55.749Z,0
2022-08-01T06:41:55.747Z,0
2022-08-01T06:42:55.755Z,0
2022-08-01T06:43:55.742Z,0
2022-08-01T06:44:55.744Z,0
2022-08-01T06:45:55.757Z,0
2022-08-01T06:46:55.753Z,1.1
2022-08-01T06:47:55.757Z,4.6000000000000005
2022-08-01T06:48:55.763Z,2.7
2022-08-01T06:49:55.758Z,2.3000000000000003
2022-08-01T06:50:55.761Z,5.4
2022-08-01T06:51:55.755Z,5.7
2022-08-01T06:52:55.754Z,1.2000000000000002
2022-08-01T06:53:55.745Z,0
2022-08-01T06:54:55.756Z,0
2022-08-01T06:55:55.760Z,6.4
2022-08-01T06:56:55.752Z,4.9
2022-08-01T06:57:55.754Z,2.2
2022-08-01T06:58:55.752Z,1.4000000000000001
2022-08-01T06:59:55.752Z,4.5
2022-08-01T07:00:57.630Z,2.2
2022-08-01T07:01:55.751Z,0
2022-08-01T07:02:55.763Z,1.8
2022-08-01T07:03:55.757Z,4.3
2022-08-01T07:04:55.756Z,4.5
2022-08-01T07:05:55.754Z,2.8000000000000003
2022-08-01T07:06:55.758Z,5.5
2022-08-01T07:07:55.755Z,5.2
2022-08-01T07:08:55.761Z,2.7
2022-08-01T07:09:55.756Z,2.5
2022-08-01T07:10:55.761Z,0
2022-08-01T07:11:55.764Z,5.5
2022-08-01T07:12:55.767Z,4.7
2022-08-01T07:13:55.757Z,5.6000000000000005
2022-08-01T07:14:55.763Z,1.7000000000000002
2022-08-01T07:15:55.763Z,0
2022-08-01T07:16:55.766Z,3.1
2022-08-01T07:17:55.770Z,0
2022-08-01T07:18:55.761Z,0
2022-08-01T07:19:55.770Z,0
2022-08-01T07:20:55.777Z,0
2022-08-01T07:21:55.768Z,6.1000000000000005
2022-08-01T07:22:56.407Z,0.9
2022-08-01T07:23:55.954Z,0
2022-08-01T07:24:55.770Z,0
2022-08-01T07:25:58.138Z,0
2022-08-01T07:26:55.777Z,3.5
2022-08-01T07:27:55.777Z,2.8000000000000003
2022-08-01T07:28:55.785Z,1.2000000000000002
2022-08-01T07:29:55.796Z,0
2022-08-01T07:30:55.780Z,0
2022-08-01T07:31:55.784Z,0
2022-08-01T07:32:55.782Z,0
2022-08-01T07:33:55.787Z,0.9
2022-08-01T07:34:55.787Z,0
2022-08-01T07:35:55.789Z,0
2022-08-01T07:36:55.795Z,0
2022-08-01T07:37:55.792Z,0
2022-08-01T07:38:55.797Z,0
2022-08-01T07:39:55.805Z,0
2022-08-01T07:40:55.807Z,0
2022-08-01T07:42:05.730Z,0
2022-08-01T07:42:55.796Z,0
2022-08-01T07:43:58.771Z,0
2022-08-01T07:44:55.805Z,4.2
2022-08-01T07:45:55.792Z,1.2000000000000002
2022-08-01T07:46:55.813Z,0
2022-08-01T07:47:55.807Z,0
2022-08-01T07:48:55.875Z,0
2022-08-01T07:49:55.809Z,0
2022-08-01T07:50:55.802Z,0
2022-08-01T07:52:02.825Z,0
2022-08-01T07:52:55.812Z,1.4000000000000001
2022-08-01T07:53:55.813Z,3.2
2022-08-01T07:54:55.811Z,0.9
2022-08-01T07:55:55.806Z,0
2022-08-01T07:56:55.810Z,0
2022-08-01T07:57:55.824Z,0
2022-08-01T07:58:55.819Z,0
2022-08-01T07:59:55.821Z,0
2022-08-01T08:00:55.822Z,0
2022-08-01T08:01:55.929Z,0
2022-08-01T08:02:55.817Z,0
2022-08-01T08:03:55.819Z,0
2022-08-01T08:04:55.834Z,0
2022-08-01T08:05:59.040Z,0
2022-08-01T08:06:55.834Z,4.7
2022-08-01T08:07:55.832Z,3.2
2022-08-01T08:08:55.831Z,0
2022-08-01T08:09:55.828Z,0
2022-08-01T08:10:55.842Z,0
2022-08-01T08:11:55.834Z,0
2022-08-01T08:12:55.839Z,0
2022-08-01T08:13:55.834Z,0
2022-08-01T08:14:55.841Z,0
2022-08-01T08:15:55.844Z,0
2022-08-01T08:16:55.837Z,1.5
2022-08-01T08:17:55.839Z,2.9000000000000004
2022-08-01T08:18:55.835Z,2
2022-08-01T08:19:55.840Z,3.5
2022-08-01T08:20:55.850Z,2.6
2022-08-01T08:21:55.840Z,0.7000000000000001
2022-08-01T08:22:55.844Z,0
2022-08-01T08:23:55.843Z,0
2022-08-01T08:24:55.838Z,0
2022-08-01T08:25:55.842Z,0
2022-08-01T08:26:55.841Z,3.7
2022-08-01T08:27:55.850Z,0
2022-08-01T08:28:55.846Z,0
2022-08-01T08:29:55.853Z,0
2022-08-01T08:30:55.851Z,0
2022-08-01T08:31:56.979Z,2.8000000000000003
2022-08-01T08:32:55.849Z,4.9
2022-08-01T08:33:55.847Z,1.5
2022-08-01T08:34:55.856Z,2.2
2022-08-01T08:35:55.849Z,1.7000000000000002
2022-08-01T08:36:55.867Z,0
2022-08-01T08:37:55.989Z,1.9000000000000001
2022-08-01T08:38:55.864Z,0
2022-08-01T08:39:55.853Z,0
2022-08-01T08:40:55.864Z,3.1
2022-08-01T08:41:55.859Z,0
2022-08-01T08:42:55.870Z,0
2022-08-01T08:43:55.865Z,0
2022-08-01T08:44:55.868Z,0
2022-08-01T08:45:58.740Z,0
2022-08-01T08:46:55.862Z,0
2022-08-01T08:47:55.866Z,0
2022-08-01T08:48:55.961Z,0
2022-08-01T08:49:55.873Z,0
2022-08-01T08:50:55.877Z,0
2022-08-01T08:51:55.873Z,0
2022-08-01T08:52:55.880Z,4.7
2022-08-01T08:53:55.872Z,0.30000000000000004
2022-08-01T08:54:55.873Z,0
2022-08-01T08:55:56.735Z,2.6
2022-08-01T08:56:55.881Z,2
2022-08-01T08:57:55.879Z,4.2
2022-08-01T08:58:55.882Z,5
2022-08-01T08:59:55.882Z,0
2022-08-01T09:00:55.884Z,0
2022-08-01T09:01:55.884Z,0
2022-08-01T09:02:55.913Z,0
2022-08-01T09:03:55.899Z,0
2022-08-01T09:04:55.889Z,1.9000000000000001
2022-08-01T09:05:55.897Z,3.4000000000000004
2022-08-01T09:06:56.022Z,5.9
2022-08-01T09:07:55.889Z,0
2022-08-01T09:08:55.892Z,0
2022-08-01T09:09:55.897Z,3.7
2022-08-01T09:10:55.903Z,1.5
2022-08-01T09:11:57.125Z,4.6000000000000005
2022-08-01T09:12:55.898Z,2.3000000000000003
2022-08-01T09:13:55.900Z,0
2022-08-01T09:14:55.899Z,0
2022-08-01T09:15:55.902Z,1.3
2022-08-01T09:16:55.906Z,0
2022-08-01T09:17:55.901Z,0
2022-08-01T09:18:55.907Z,3.9000000000000004
2022-08-01T09:19:57.640Z,0
2022-08-01T09:20:55.900Z,1.6
2022-08-01T09:21:55.900Z,1.8
2022-08-01T09:22:55.903Z,1.1
2022-08-01T09:23:55.903Z,0
2022-08-01T09:24:55.905Z,1.3
2022-08-01T09:25:56.862Z,0
2022-08-01T09:26:55.908Z,5
2022-08-01T09:27:55.905Z,7.1000000000000005
2022-08-01T09:28:55.910Z,2.8000000000000003
2022-08-01T09:30:01.699Z,8
2022-08-01T09:30:55.906Z,2.2
2022-08-01T09:31:55.909Z,1.8
2022-08-01T09:32:55.922Z,6.1000000000000005
2022-08-01T09:33:55.914Z,5.4
2022-08-01T09:34:55.913Z,1.5
2022-08-01T09:35:55.908Z,1.7000000000000002
2022-08-01T09:36:55.922Z,0
2022-08-01T09:37:55.917Z,7.800000000000001
2022-08-01T09:38:55.916Z,1.6
2022-08-01T09:39:55.917Z,2.3000000000000003
2022-08-01T09:40:58.127Z,4.7
2022-08-01T09:41:56.437Z,6.4
2022-08-01T09:42:55.912Z,0.9
2022-08-01T09:43:55.919Z,0
2022-08-01T09:44:55.915Z,0.4
2022-08-01T09:45:55.918Z,0
2022-08-01T09:46:55.933Z,0
2022-08-01T09:47:55.909Z,5.5
2022-08-01T09:48:55.951Z,1.3
2022-08-01T09:49:55.960Z,3.8000000000000003
2022-08-01T09:50:55.910Z,5.7
2022-08-01T09:51:59.233Z,2.8000000000000003
2022-08-01T09:52:55.921Z,6.800000000000001
2022-08-01T09:53:55.931Z,6.5
2022-08-01T09:54:55.922Z,6.5
2022-08-01T09:55:55.920Z,3.5
2022-08-01T09:56:55.921Z,6.6000000000000005
2022-08-01T09:57:55.920Z,5.6000000000000005
2022-08-01T09:58:59.746Z,1.6
2022-08-01T09:59:58.592Z,2.8000000000000003
2022-08-01T10:00:55.924Z,7.5
2022-08-01T10:01:55.929Z,4.9
2022-08-01T10:02:55.963Z,1.1
2022-08-01T10:03:55.944Z,4.3
2022-08-01T10:04:59.922Z,1.9000000000000001
2022-08-01T10:05:55.938Z,4.1000000000000005
2022-08-01T10:06:55.917Z,5.6000000000000005
2022-08-01T10:07:55.920Z,5.1000000000000005
2022-08-01T10:08:55.918Z,0
2022-08-01T10:09:55.915Z,3.6
2022-08-01T10:10:58.875Z,7.4
2022-08-01T10:11:55.914Z,8.6
2022-08-01T10:12:55.925Z,0
2022-08-01T10:13:55.920Z,0
2022-08-01T10:14:55.934Z,4.6000000000000005
2022-08-01T10:15:55.922Z,9.8
2022-08-01T10:16:58.201Z,5
2022-08-01T10:17:57.155Z,7.4
2022-08-01T10:18:55.923Z,10.700000000000001
2022-08-01T10:19:58.184Z,14.8
2022-08-01T10:20:56.529Z,13.4
2022-08-01T10:21:56.539Z,21.400000000000002
2022-08-01T10:22:55.922Z,9.200000000000001
2022-08-01T10:23:58.767Z,13.3
2022-08-01T10:24:55.923Z,8.200000000000001
2022-08-01T10:25:55.953Z,14.600000000000001
2022-08-01T10:26:55.929Z,16.2
2022-08-01T10:27:55.931Z,5.7
2022-08-01T10:28:55.927Z,10.4
2022-08-01T10:30:00.002Z,10
2022-08-01T10:30:55.930Z,7.7
2022-08-01T10:31:55.937Z,4.5
2022-08-01T10:32:55.933Z,4.1000000000000005
2022-08-01T10:33:55.932Z,0
2022-08-01T10:34:55.935Z,5.300000000000001
2022-08-01T10:35:55.963Z,5.2
2022-08-01T10:36:55.939Z,4.5
2022-08-01T10:37:55.941Z,5.800000000000001
2022-08-01T10:38:55.944Z,7.300000000000001
2022-08-01T10:40:08.760Z,7.300000000000001
2022-08-01T10:40:55.954Z,10.4
2022-08-01T10:41:55.972Z,13
2022-08-01T10:42:55.946Z,9.700000000000001
2022-08-01T10:43:55.956Z,8.3
2022-08-01T10:44:55.958Z,13.100000000000001
2022-08-01T10:45:55.961Z,14.8
2022-08-01T10:46:55.955Z,9.700000000000001
2022-08-01T10:47:55.958Z,11.9
2022-08-01T10:48:56.018Z,18.8
2022-08-01T10:49:55.963Z,8.700000000000001
2022-08-01T10:50:55.966Z,13.700000000000001
2022-08-01T10:51:55.964Z,12.9
2022-08-01T10:52:55.976Z,8.700000000000001
2022-08-01T10:53:56.009Z,10.600000000000001
2022-08-01T10:54:55.970Z,8.200000000000001
2022-08-01T10:55:55.977Z,18
2022-08-01T10:56:55.977Z,10.5
2022-08-01T10:57:55.968Z,5.9
2022-08-01T10:58:55.974Z,9.700000000000001
2022-08-01T10:59:59.469Z,7.800000000000001
2022-08-01T11:00:56.026Z,8.8
2022-08-01T11:01:56.047Z,12.600000000000001
2022-08-01T11:02:55.987Z,8
2022-08-01T11:03:59.117Z,5.7
2022-08-01T11:04:55.986Z,1.7000000000000002
2022-08-01T11:05:55.993Z,5.7
2022-08-01T11:06:55.995Z,4
2022-08-01T11:07:55.995Z,1.9000000000000001
2022-08-01T11:08:55.998Z,3.6
2022-08-01T11:09:55.982Z,4.3
2022-08-01T11:10:55.991Z,5.6000000000000005
2022-08-01T11:11:55.984Z,6.4
2022-08-01T11:12:56.007Z,1.4000000000000001
2022-08-01T11:13:55.980Z,2.3000000000000003
2022-08-01T11:14:56.197Z,6.2
2022-08-01T11:15:55.990Z,2.1
2022-08-01T11:16:55.999Z,3.1
2022-08-01T11:17:55.986Z,7.6000000000000005
2022-08-01T11:18:55.993Z,4.6000000000000005
2022-08-01T11:19:55.992Z,8.3
2022-08-01T11:20:56.002Z,9.1
2022-08-01T11:21:58.422Z,18.5
2022-08-01T11:22:56.002Z,5.2
2022-08-01T11:23:56.009Z,4.7
2022-08-01T11:24:56.009Z,11.100000000000001
2022-08-01T11:25:58.295Z,12
2022-08-01T11:26:56.014Z,12.4
2022-08-01T11:27:56.012Z,20.200000000000003
2022-08-01T11:29:18.221Z,10.8
2022-08-01T11:29:56.009Z,5.5
2022-08-01T11:30:56.034Z,7.7
2022-08-01T11:31:56.018Z,7.6000000000000005
2022-08-01T11:33:10.264Z,8.200000000000001
2022-08-01T11:33:58.266Z,41.800000000000004
2022-08-01T11:34:56.013Z,10.100000000000001
2022-08-01T11:35:56.017Z,9.3
2022-08-01T11:36:58.657Z,6.4
2022-08-01T11:37:56.027Z,14.100000000000001
2022-08-01T11:38:56.027Z,9.700000000000001
2022-08-01T11:39:56.025Z,5
2022-08-01T11:40:56.049Z,5.2
2022-08-01T11:41:56.026Z,7
2022-08-01T11:42:56.037Z,11.8
2022-08-01T11:43:56.038Z,8.1
2022-08-01T11:44:56.038Z,7.800000000000001
2022-08-01T11:45:56.043Z,6.300000000000001
2022-08-01T11:46:56.044Z,0
2022-08-01T11:47:56.044Z,4.6000000000000005
2022-08-01T11:48:56.084Z,7.5
2022-08-01T11:49:56.404Z,7.800000000000001
2022-08-01T11:50:56.048Z,4.6000000000000005
2022-08-01T11:51:56.047Z,4.5
2022-08-01T11:52:56.037Z,10.9
2022-08-01T11:53:56.051Z,7.7
2022-08-01T11:54:56.042Z,2.2
2022-08-01T11:55:56.050Z,1.1
2022-08-01T11:56:56.045Z,2.2
2022-08-01T11:57:56.049Z,7
2022-08-01T11:58:56.063Z,6.2
2022-08-01T12:00:03.071Z,9.1
2022-08-01T12:00:56.063Z,4.7
2022-08-01T12:01:56.124Z,4.800000000000001
2022-08-01T12:02:56.096Z,5.5
2022-08-01T12:03:56.095Z,10.5
2022-08-01T12:04:56.070Z,7.5
2022-08-01T12:05:56.068Z,7.5
2022-08-01T12:06:56.072Z,6.7
2022-08-01T12:07:56.073Z,4.2
2022-08-01T12:08:56.062Z,5.9
2022-08-01T12:09:56.068Z,3
2022-08-01T12:11:01.978Z,6.6000000000000005
2022-08-01T12:11:56.080Z,5.1000000000000005
2022-08-01T12:12:56.084Z,8.3
2022-08-01T12:13:56.084Z,10.8
2022-08-01T12:14:56.085Z,17.3
2022-08-01T12:15:56.864Z,10.700000000000001
2022-08-01T12:16:56.087Z,13.3
2022-08-01T12:17:57.778Z,13.200000000000001
2022-08-01T12:18:56.079Z,9.600000000000001
2022-08-01T12:19:56.097Z,10.200000000000001
2022-08-01T12:20:57.181Z,4.7
2022-08-01T12:21:56.189Z,7.800000000000001
2022-08-01T12:22:56.087Z,11.8
2022-08-01T12:23:56.094Z,5.300000000000001
2022-08-01T12:24:56.084Z,4.800000000000001
2022-08-01T12:25:56.096Z,5.9
2022-08-01T12:26:56.087Z,6.1000000000000005
2022-08-01T12:27:56.950Z,2.1
2022-08-01T12:28:56.095Z,8.700000000000001
2022-08-01T12:29:56.087Z,15
2022-08-01T12:30:56.088Z,11.5
2022-08-01T12:31:56.103Z,12.700000000000001
2022-08-01T12:32:56.097Z,8.200000000000001
2022-08-01T12:33:56.099Z,13.100000000000001
2022-08-01T12:34:56.099Z,1.3
2022-08-01T12:35:56.099Z,13.100000000000001
2022-08-01T12:36:56.097Z,8.8
2022-08-01T12:37:56.110Z,9.600000000000001
2022-08-01T12:38:56.103Z,9.9
2022-08-01T12:39:56.101Z,13.8
2022-08-01T12:40:56.101Z,17.3
2022-08-01T12:41:56.107Z,2.8000000000000003
2022-08-01T12:42:56.097Z,13.200000000000001
2022-08-01T12:43:56.121Z,16.5
2022-08-01T12:44:56.109Z,5.300000000000001
2022-08-01T12:45:56.802Z,9.4
2022-08-01T12:46:56.108Z,2.4000000000000004
2022-08-01T12:47:56.108Z,2.8000000000000003
2022-08-01T12:48:56.152Z,9.600000000000001
2022-08-01T12:49:56.120Z,5.6000000000000005
2022-08-01T12:50:56.108Z,4.1000000000000005
2022-08-01T12:51:56.995Z,0
2022-08-01T12:52:56.114Z,9
2022-08-01T12:53:56.111Z,9.200000000000001
2022-08-01T12:54:56.124Z,12
2022-08-01T12:55:58.834Z,10.3
2022-08-01T12:56:56.124Z,3.6
2022-08-01T12:57:56.122Z,10.5
2022-08-01T12:58:56.132Z,5.300000000000001
2022-08-01T12:59:56.125Z,9
2022-08-01T13:00:56.193Z,14.700000000000001
2022-08-01T13:01:59.309Z,5.800000000000001
2022-08-01T13:02:56.130Z,8.200000000000001
2022-08-01T13:03:56.132Z,7.800000000000001
2022-08-01T13:04:56.137Z,8.9
2022-08-01T13:05:56.136Z,12.3
2022-08-01T13:06:56.157Z,6.4
2022-08-01T13:07:56.130Z,6.300000000000001
2022-08-01T13:08:56.133Z,7.6000000000000005
2022-08-01T13:09:56.132Z,6.300000000000001
2022-08-01T13:10:56.142Z,8.4
2022-08-01T13:11:59.056Z,5.2
2022-08-01T13:12:56.145Z,8.3
2022-08-01T13:13:56.142Z,11
2022-08-01T13:14:56.143Z,6.800000000000001
2022-08-01T13:15:56.155Z,5.6000000000000005
2022-08-01T13:16:57.403Z,4.800000000000001
2022-08-01T13:17:56.151Z,5.2
2022-08-01T13:18:56.152Z,6.1000000000000005
2022-08-01T13:19:58.953Z,11.700000000000001